Pagrindinis puslapis
METAR-TAF:

METAR-TAF

Oro uostai :

La Pasas, Bolivija

platuma: 16-31S, ilguma: 068-11W, Aukštis: 4058 m

Dabartinis oras

Ataskaita buvo paskelbta 41 minutes, ne 12:00 UTC
Vėjas 4 kt iš Rytų/Pietryčių
Temperatūra 6°C
Drėgmė 81%
Slėgis 1040 hPa
Matomumas: 8000 m
Mažai debesys ne aukštis 1000 ft

METAR: SLLP 171200Z 12004KT 8000 FEW010 06/03 Q1040

Laikas: 08:41 (12:41 UTC)

Prognozė

Ataskaita buvo paskelbta 2 valandos ir 16 minutes, ne 10:25 UTC
Prognozė galioja nuo 17 metu 12 UTC su 18 metu 12 UTC
Vėjas 5 kt iš Rytų/Šiaurės Rytų
Matomumas 10 km arba daugiau
Mažai debesys ne aukštis 1500 ft
Tapsmas
nuo 17 metu 13 UTC su 17 metu 15 UTC
Vėjas 12 kt iš Pietryčių
Tapsmas
nuo 17 metu 23 UTC su 18 metu 01 UTC
Vėjas 6 kt iš Rytų
Laikinai
nuo 18 metu 06 UTC su 18 metu 10 UTC
Matomumas: 3000 m
Mažai debesys ne aukštis 300 ft
Rūkas kaimynystėje

TAF: SLLP 171025Z 1712/1812 07005KT 9999 FEW015 TX18/1720Z TNM01/1810Z BECMG 1713/1715 14012KT BECMG 1723/1801 08006KT TEMPO 1806/1810 3000E VCFG FEW003

Orai ataskaitas ir orų prognozės (METAR, TAF).

turimą stotys yra geltonos ir raudonos taškus žemėlapyje.

Perkelti pele per norėdami pamatyti stoties vardą.

Tada spustelėkite, norėdami matyti oro stebėjimo ir prognozės.

Norėdami pakeisti žemėlapį: spustelėkite ant žalios mygtukų su juodo kryžiaus žemyn,; žalią mygtuką su brūkšneliu, jei norite nutolinti; arba žalių rodyklių gretimoms žemėlapius.


METAR-TAF: